sensor_id;sensor_type;location;lat;lon;timestamp;P1;durP1;ratioP1;P2;durP2;ratioP2
51981;SDS011;37998;53.416;6.730;2023-02-01T00:00:48;32.53;;;7.30;;
51981;SDS011;37998;53.416;6.730;2023-02-01T00:03:14;34.75;;;7.55;;
51981;SDS011;37998;53.416;6.730;2023-02-01T00:05:39;33.78;;;7.40;;
51981;SDS011;37998;53.416;6.730;2023-02-01T00:08:05;31.02;;;7.05;;
51981;SDS011;37998;53.416;6.730;2023-02-01T00:10:30;29.33;;;6.93;;
51981;SDS011;37998;53.416;6.730;2023-02-01T00:12:56;39.90;;;7.70;;
51981;SDS011;37998;53.416;6.730;2023-02-01T00:15:22;38.28;;;7.10;;
51981;SDS011;37998;53.416;6.730;2023-02-01T00:17:48;35.20;;;8.35;;
51981;SDS011;37998;53.416;6.730;2023-02-01T00:20:19;36.35;;;7.18;;
51981;SDS011;37998;53.416;6.730;2023-02-01T00:22:44;33.17;;;6.60;;
51981;SDS011;37998;53.416;6.730;2023-02-01T00:25:10;31.20;;;6.82;;
51981;SDS011;37998;53.416;6.730;2023-02-01T00:27:36;23.85;;;6.45;;
51981;SDS011;37998;53.416;6.730;2023-02-01T00:30:02;27.60;;;7.45;;
51981;SDS011;37998;53.416;6.730;2023-02-01T00:32:27;35.38;;;7.55;;
51981;SDS011;37998;53.416;6.730;2023-02-01T00:34:53;31.13;;;6.93;;
51981;SDS011;37998;53.416;6.730;2023-02-01T00:37:19;30.63;;;6.70;;
51981;SDS011;37998;53.416;6.730;2023-02-01T00:39:44;32.90;;;7.20;;
51981;SDS011;37998;53.416;6.730;2023-02-01T00:42:10;27.48;;;5.38;;
51981;SDS011;37998;53.416;6.730;2023-02-01T00:44:35;26.10;;;6.47;;
51981;SDS011;37998;53.416;6.730;2023-02-01T00:47:01;42.25;;;7.15;;
51981;SDS011;37998;53.416;6.730;2023-02-01T00:49:27;30.02;;;6.75;;
51981;SDS011;37998;53.416;6.730;2023-02-01T00:51:53;28.52;;;6.13;;
51981;SDS011;37998;53.416;6.730;2023-02-01T00:54:19;35.38;;;6.82;;
51981;SDS011;37998;53.416;6.730;2023-02-01T00:56:45;36.40;;;7.25;;
51981;SDS011;37998;53.416;6.730;2023-02-01T00:59:11;32.47;;;6.32;;
51981;SDS011;37998;53.416;6.730;2023-02-01T01:01:37;32.78;;;7.78;;
51981;SDS011;37998;53.416;6.730;2023-02-01T01:04:03;29.02;;;6.32;;
51981;SDS011;37998;53.416;6.730;2023-02-01T01:06:30;30.67;;;6.00;;
51981;SDS011;37998;53.416;6.730;2023-02-01T01:08:58;26.52;;;6.00;;
51981;SDS011;37998;53.416;6.730;2023-02-01T01:11:26;28.88;;;6.65;;
51981;SDS011;37998;53.416;6.730;2023-02-01T01:13:55;25.75;;;6.45;;
51981;SDS011;37998;53.416;6.730;2023-02-01T01:16:22;36.20;;;6.32;;
51981;SDS011;37998;53.416;6.730;2023-02-01T01:18:50;33.42;;;7.15;;
51981;SDS011;37998;53.416;6.730;2023-02-01T01:21:16;28.35;;;6.25;;
51981;SDS011;37998;53.416;6.730;2023-02-01T01:23:43;29.02;;;6.90;;
51981;SDS011;37998;53.416;6.730;2023-02-01T01:26:12;24.85;;;6.88;;
51981;SDS011;37998;53.416;6.730;2023-02-01T01:28:41;27.00;;;6.30;;
51981;SDS011;37998;53.416;6.730;2023-02-01T01:31:10;32.95;;;6.80;;
51981;SDS011;37998;53.416;6.730;2023-02-01T01:33:37;29.38;;;6.75;;
51981;SDS011;37998;53.416;6.730;2023-02-01T01:36:06;31.92;;;6.28;;
51981;SDS011;37998;53.416;6.730;2023-02-01T01:38:36;26.05;;;6.07;;
51981;SDS011;37998;53.416;6.730;2023-02-01T01:41:03;26.85;;;5.97;;
51981;SDS011;37998;53.416;6.730;2023-02-01T01:46:30;25.80;;;6.32;;
51981;SDS011;37998;53.416;6.730;2023-02-01T01:49:05;33.58;;;6.47;;
51981;SDS011;37998;53.416;6.730;2023-02-01T01:51:36;33.08;;;7.15;;
51981;SDS011;37998;53.416;6.730;2023-02-01T01:54:24;34.67;;;6.32;;
51981;SDS011;37998;53.416;6.730;2023-02-01T01:56:55;30.15;;;6.50;;
51981;SDS011;37998;53.416;6.730;2023-02-01T01:59:23;36.05;;;6.28;;
51981;SDS011;37998;53.416;6.730;2023-02-01T02:01:50;34.80;;;7.43;;
51981;SDS011;37998;53.416;6.730;2023-02-01T02:04:16;31.48;;;6.75;;
51981;SDS011;37998;53.416;6.730;2023-02-01T02:06:46;27.98;;;6.55;;
51981;SDS011;37998;53.416;6.730;2023-02-01T02:09:24;31.58;;;6.20;;
51981;SDS011;37998;53.416;6.730;2023-02-01T02:11:50;39.78;;;7.07;;
51981;SDS011;37998;53.416;6.730;2023-02-01T02:14:16;23.05;;;5.20;;
51981;SDS011;37998;53.416;6.730;2023-02-01T02:25:14;23.33;;;5.85;;
51981;SDS011;37998;53.416;6.730;2023-02-01T02:39:35;32.88;;;6.38;;
51981;SDS011;37998;53.416;6.730;2023-02-01T02:42:29;31.92;;;7.68;;
51981;SDS011;37998;53.416;6.730;2023-02-01T02:46:07;37.22;;;6.30;;
51981;SDS011;37998;53.416;6.730;2023-02-01T02:51:34;29.42;;;6.53;;
51981;SDS011;37998;53.416;6.730;2023-02-01T02:54:28;21.90;;;6.13;;
51981;SDS011;37998;53.416;6.730;2023-02-01T02:57:21;34.03;;;6.70;;
51981;SDS011;37998;53.416;6.730;2023-02-01T03:00:14;22.45;;;5.43;;
51981;SDS011;37998;53.416;6.730;2023-02-01T03:03:00;27.60;;;5.70;;
51981;SDS011;37998;53.416;6.730;2023-02-01T03:05:46;28.33;;;6.85;;
51981;SDS011;37998;53.416;6.730;2023-02-01T03:11:04;31.80;;;6.43;;
51981;SDS011;37998;53.416;6.730;2023-02-01T03:18:54;28.98;;;6.40;;
51981;SDS011;37998;53.416;6.730;2023-02-01T03:24:12;34.75;;;7.10;;
51981;SDS011;37998;53.416;6.730;2023-02-01T03:27:20;30.55;;;6.25;;
51981;SDS011;37998;53.416;6.730;2023-02-01T03:32:34;24.02;;;6.10;;
51981;SDS011;37998;53.416;6.730;2023-02-01T03:35:20;32.65;;;8.20;;
51981;SDS011;37998;53.416;6.730;2023-02-01T03:37:56;33.03;;;7.00;;
51981;SDS011;37998;53.416;6.730;2023-02-01T03:40:30;27.30;;;6.95;;
51981;SDS011;37998;53.416;6.730;2023-02-01T03:43:01;25.27;;;5.70;;
51981;SDS011;37998;53.416;6.730;2023-02-01T03:45:40;33.17;;;6.80;;
51981;SDS011;37998;53.416;6.730;2023-02-01T03:48:10;37.03;;;6.63;;
51981;SDS011;37998;53.416;6.730;2023-02-01T03:50:39;19.90;;;5.05;;
51981;SDS011;37998;53.416;6.730;2023-02-01T03:53:14;20.42;;;4.82;;
51981;SDS011;37998;53.416;6.730;2023-02-01T03:55:43;25.90;;;5.43;;
51981;SDS011;37998;53.416;6.730;2023-02-01T03:58:16;27.38;;;6.40;;
51981;SDS011;37998;53.416;6.730;2023-02-01T04:00:50;19.88;;;4.50;;
51981;SDS011;37998;53.416;6.730;2023-02-01T04:03:16;18.88;;;3.72;;
51981;SDS011;37998;53.416;6.730;2023-02-01T04:05:42;21.05;;;4.50;;
51981;SDS011;37998;53.416;6.730;2023-02-01T04:08:07;31.60;;;6.32;;
51981;SDS011;37998;53.416;6.730;2023-02-01T04:10:33;35.65;;;7.35;;
51981;SDS011;37998;53.416;6.730;2023-02-01T04:12:58;40.72;;;7.53;;
51981;SDS011;37998;53.416;6.730;2023-02-01T04:15:24;35.05;;;8.40;;
51981;SDS011;37998;53.416;6.730;2023-02-01T04:17:50;40.50;;;7.95;;
51981;SDS011;37998;53.416;6.730;2023-02-01T04:20:15;35.88;;;8.20;;
51981;SDS011;37998;53.416;6.730;2023-02-01T04:22:41;30.83;;;7.75;;
51981;SDS011;37998;53.416;6.730;2023-02-01T04:25:07;38.15;;;8.48;;
51981;SDS011;37998;53.416;6.730;2023-02-01T04:27:33;43.58;;;7.70;;
51981;SDS011;37998;53.416;6.730;2023-02-01T04:29:59;31.80;;;7.72;;
51981;SDS011;37998;53.416;6.730;2023-02-01T04:32:24;30.55;;;7.00;;
51981;SDS011;37998;53.416;6.730;2023-02-01T04:34:50;28.55;;;7.07;;
51981;SDS011;37998;53.416;6.730;2023-02-01T04:37:16;32.90;;;7.75;;
51981;SDS011;37998;53.416;6.730;2023-02-01T04:39:41;32.90;;;6.65;;
51981;SDS011;37998;53.416;6.730;2023-02-01T04:42:07;28.88;;;6.68;;
51981;SDS011;37998;53.416;6.730;2023-02-01T04:44:33;45.22;;;7.50;;
51981;SDS011;37998;53.416;6.730;2023-02-01T04:46:59;23.05;;;6.43;;
51981;SDS011;37998;53.416;6.730;2023-02-01T04:49:24;37.17;;;6.43;;
51981;SDS011;37998;53.416;6.730;2023-02-01T04:51:51;31.48;;;8.27;;
51981;SDS011;37998;53.416;6.730;2023-02-01T04:54:17;43.00;;;7.85;;
51981;SDS011;37998;53.416;6.730;2023-02-01T04:56:43;31.38;;;8.10;;
51981;SDS011;37998;53.416;6.730;2023-02-01T04:59:10;36.13;;;7.35;;
51981;SDS011;37998;53.416;6.730;2023-02-01T05:01:36;34.08;;;7.55;;
51981;SDS011;37998;53.416;6.730;2023-02-01T05:04:02;30.33;;;6.65;;
51981;SDS011;37998;53.416;6.730;2023-02-01T05:06:28;39.10;;;7.50;;
51981;SDS011;37998;53.416;6.730;2023-02-01T05:08:53;36.25;;;6.72;;
51981;SDS011;37998;53.416;6.730;2023-02-01T05:11:19;33.67;;;8.50;;
51981;SDS011;37998;53.416;6.730;2023-02-01T05:14:03;33.03;;;6.68;;
51981;SDS011;37998;53.416;6.730;2023-02-01T05:16:29;43.55;;;7.78;;
51981;SDS011;37998;53.416;6.730;2023-02-01T05:18:54;38.22;;;7.32;;
51981;SDS011;37998;53.416;6.730;2023-02-01T05:21:20;40.92;;;7.70;;
51981;SDS011;37998;53.416;6.730;2023-02-01T05:23:46;40.92;;;8.13;;
51981;SDS011;37998;53.416;6.730;2023-02-01T05:26:31;37.50;;;8.52;;
51981;SDS011;37998;53.416;6.730;2023-02-01T05:28:56;35.22;;;8.10;;
51981;SDS011;37998;53.416;6.730;2023-02-01T05:31:22;39.83;;;8.18;;
51981;SDS011;37998;53.416;6.730;2023-02-01T05:33:48;30.35;;;6.10;;
51981;SDS011;37998;53.416;6.730;2023-02-01T05:36:14;39.42;;;8.75;;
51981;SDS011;37998;53.416;6.730;2023-02-01T05:38:40;32.92;;;7.20;;
51981;SDS011;37998;53.416;6.730;2023-02-01T05:41:06;45.45;;;9.45;;
51981;SDS011;37998;53.416;6.730;2023-02-01T05:43:32;30.52;;;6.70;;
51981;SDS011;37998;53.416;6.730;2023-02-01T05:45:57;42.40;;;7.72;;
51981;SDS011;37998;53.416;6.730;2023-02-01T05:48:23;42.55;;;9.43;;
51981;SDS011;37998;53.416;6.730;2023-02-01T05:50:49;42.50;;;7.50;;
51981;SDS011;37998;53.416;6.730;2023-02-01T05:53:14;48.28;;;9.90;;
51981;SDS011;37998;53.416;6.730;2023-02-01T05:55:40;38.50;;;7.43;;
51981;SDS011;37998;53.416;6.730;2023-02-01T05:58:06;53.25;;;10.63;;
51981;SDS011;37998;53.416;6.730;2023-02-01T06:00:32;50.88;;;8.90;;
51981;SDS011;37998;53.416;6.730;2023-02-01T06:02:58;38.13;;;8.77;;
51981;SDS011;37998;53.416;6.730;2023-02-01T06:05:23;43.33;;;10.20;;
51981;SDS011;37998;53.416;6.730;2023-02-01T06:07:49;47.00;;;8.02;;
51981;SDS011;37998;53.416;6.730;2023-02-01T06:10:16;49.40;;;8.90;;
51981;SDS011;37998;53.416;6.730;2023-02-01T06:12:42;39.50;;;8.63;;
51981;SDS011;37998;53.416;6.730;2023-02-01T06:15:10;35.38;;;8.60;;
51981;SDS011;37998;53.416;6.730;2023-02-01T06:17:36;37.85;;;8.07;;
51981;SDS011;37998;53.416;6.730;2023-02-01T06:20:03;39.70;;;8.68;;
51981;SDS011;37998;53.416;6.730;2023-02-01T06:22:31;39.00;;;8.65;;
51981;SDS011;37998;53.416;6.730;2023-02-01T06:24:57;38.53;;;7.75;;
51981;SDS011;37998;53.416;6.730;2023-02-01T06:27:24;45.50;;;8.90;;
51981;SDS011;37998;53.416;6.730;2023-02-01T06:29:50;26.25;;;7.75;;
51981;SDS011;37998;53.416;6.730;2023-02-01T06:32:16;31.40;;;7.80;;
51981;SDS011;37998;53.416;6.730;2023-02-01T06:34:42;28.33;;;6.40;;
51981;SDS011;37998;53.416;6.730;2023-02-01T06:37:08;34.58;;;7.68;;
51981;SDS011;37998;53.416;6.730;2023-02-01T06:39:36;36.90;;;7.65;;
51981;SDS011;37998;53.416;6.730;2023-02-01T06:42:02;40.63;;;7.65;;
51981;SDS011;37998;53.416;6.730;2023-02-01T06:44:28;26.30;;;5.95;;
51981;SDS011;37998;53.416;6.730;2023-02-01T06:46:53;35.53;;;6.53;;
51981;SDS011;37998;53.416;6.730;2023-02-01T06:49:19;30.35;;;5.53;;
51981;SDS011;37998;53.416;6.730;2023-02-01T06:51:45;24.52;;;6.22;;
51981;SDS011;37998;53.416;6.730;2023-02-01T06:54:11;33.17;;;7.43;;
51981;SDS011;37998;53.416;6.730;2023-02-01T06:56:36;25.13;;;6.28;;
51981;SDS011;37998;53.416;6.730;2023-02-01T06:59:06;29.90;;;6.53;;
51981;SDS011;37998;53.416;6.730;2023-02-01T07:01:32;32.05;;;5.97;;
51981;SDS011;37998;53.416;6.730;2023-02-01T07:03:58;27.75;;;6.35;;
51981;SDS011;37998;53.416;6.730;2023-02-01T07:06:24;28.73;;;5.35;;
51981;SDS011;37998;53.416;6.730;2023-02-01T07:08:50;24.05;;;5.40;;
51981;SDS011;37998;53.416;6.730;2023-02-01T07:11:16;32.97;;;6.30;;
51981;SDS011;37998;53.416;6.730;2023-02-01T07:13:43;29.98;;;6.72;;
51981;SDS011;37998;53.416;6.730;2023-02-01T07:16:10;28.13;;;5.32;;
51981;SDS011;37998;53.416;6.730;2023-02-01T07:18:38;24.13;;;5.28;;
51981;SDS011;37998;53.416;6.730;2023-02-01T07:21:04;24.38;;;4.85;;
51981;SDS011;37998;53.416;6.730;2023-02-01T07:23:30;19.80;;;5.28;;
51981;SDS011;37998;53.416;6.730;2023-02-01T07:25:57;25.08;;;5.80;;
51981;SDS011;37998;53.416;6.730;2023-02-01T07:28:28;20.42;;;5.00;;
51981;SDS011;37998;53.416;6.730;2023-02-01T07:31:01;29.33;;;6.32;;
51981;SDS011;37998;53.416;6.730;2023-02-01T07:33:30;28.25;;;5.47;;
51981;SDS011;37998;53.416;6.730;2023-02-01T07:35:57;26.88;;;6.38;;
51981;SDS011;37998;53.416;6.730;2023-02-01T07:38:22;26.73;;;5.93;;
51981;SDS011;37998;53.416;6.730;2023-02-01T07:40:49;25.17;;;6.10;;
51981;SDS011;37998;53.416;6.730;2023-02-01T07:43:14;36.28;;;6.15;;
51981;SDS011;37998;53.416;6.730;2023-02-01T07:45:40;28.67;;;5.93;;
51981;SDS011;37998;53.416;6.730;2023-02-01T07:48:06;29.85;;;5.88;;
51981;SDS011;37998;53.416;6.730;2023-02-01T07:50:32;24.98;;;6.38;;
51981;SDS011;37998;53.416;6.730;2023-02-01T07:53:00;33.78;;;6.18;;
51981;SDS011;37998;53.416;6.730;2023-02-01T07:55:26;35.40;;;6.97;;
51981;SDS011;37998;53.416;6.730;2023-02-01T07:57:52;35.30;;;7.78;;
51981;SDS011;37998;53.416;6.730;2023-02-01T08:00:18;37.85;;;8.05;;
51981;SDS011;37998;53.416;6.730;2023-02-01T08:03:03;31.13;;;6.18;;
51981;SDS011;37998;53.416;6.730;2023-02-01T08:05:29;32.30;;;7.15;;
51981;SDS011;37998;53.416;6.730;2023-02-01T08:07:55;33.90;;;7.00;;
51981;SDS011;37998;53.416;6.730;2023-02-01T08:10:20;31.33;;;6.35;;
51981;SDS011;37998;53.416;6.730;2023-02-01T08:12:46;34.08;;;6.32;;
51981;SDS011;37998;53.416;6.730;2023-02-01T08:15:13;33.67;;;7.13;;
51981;SDS011;37998;53.416;6.730;2023-02-01T08:17:40;31.92;;;6.40;;
51981;SDS011;37998;53.416;6.730;2023-02-01T08:20:11;29.00;;;7.47;;
51981;SDS011;37998;53.416;6.730;2023-02-01T08:22:38;27.05;;;6.53;;
51981;SDS011;37998;53.416;6.730;2023-02-01T08:25:04;33.85;;;6.03;;
51981;SDS011;37998;53.416;6.730;2023-02-01T08:27:32;36.00;;;7.03;;
51981;SDS011;37998;53.416;6.730;2023-02-01T08:29:58;36.03;;;8.20;;
51981;SDS011;37998;53.416;6.730;2023-02-01T08:32:24;35.03;;;7.78;;
51981;SDS011;37998;53.416;6.730;2023-02-01T08:34:51;31.77;;;7.40;;
51981;SDS011;37998;53.416;6.730;2023-02-01T08:37:17;34.83;;;6.43;;
51981;SDS011;37998;53.416;6.730;2023-02-01T08:39:42;24.38;;;6.68;;
51981;SDS011;37998;53.416;6.730;2023-02-01T08:42:09;28.73;;;6.40;;
51981;SDS011;37998;53.416;6.730;2023-02-01T08:44:54;29.88;;;6.22;;
51981;SDS011;37998;53.416;6.730;2023-02-01T08:47:20;31.58;;;6.10;;
51981;SDS011;37998;53.416;6.730;2023-02-01T08:49:45;28.13;;;6.32;;
51981;SDS011;37998;53.416;6.730;2023-02-01T08:52:11;27.73;;;6.07;;
51981;SDS011;37998;53.416;6.730;2023-02-01T08:54:37;25.17;;;6.68;;
51981;SDS011;37998;53.416;6.730;2023-02-01T08:57:04;26.60;;;6.47;;
51981;SDS011;37998;53.416;6.730;2023-02-01T08:59:30;26.63;;;6.95;;
51981;SDS011;37998;53.416;6.730;2023-02-01T09:01:55;20.10;;;5.30;;
51981;SDS011;37998;53.416;6.730;2023-02-01T09:04:21;31.80;;;5.50;;
51981;SDS011;37998;53.416;6.730;2023-02-01T09:06:46;22.23;;;4.88;;
51981;SDS011;37998;53.416;6.730;2023-02-01T09:09:12;25.98;;;5.78;;
51981;SDS011;37998;53.416;6.730;2023-02-01T09:11:38;21.95;;;5.35;;
51981;SDS011;37998;53.416;6.730;2023-02-01T09:14:03;27.40;;;6.63;;
51981;SDS011;37998;53.416;6.730;2023-02-01T09:16:29;32.42;;;7.00;;
51981;SDS011;37998;53.416;6.730;2023-02-01T09:18:54;33.60;;;6.20;;
51981;SDS011;37998;53.416;6.730;2023-02-01T09:21:20;27.45;;;5.85;;
51981;SDS011;37998;53.416;6.730;2023-02-01T09:23:46;25.33;;;6.07;;
51981;SDS011;37998;53.416;6.730;2023-02-01T09:26:13;26.25;;;5.82;;
51981;SDS011;37998;53.416;6.730;2023-02-01T09:28:39;30.00;;;5.60;;
51981;SDS011;37998;53.416;6.730;2023-02-01T09:31:05;28.23;;;5.63;;
51981;SDS011;37998;53.416;6.730;2023-02-01T09:33:30;24.38;;;5.03;;
51981;SDS011;37998;53.416;6.730;2023-02-01T09:35:57;32.35;;;5.75;;
51981;SDS011;37998;53.416;6.730;2023-02-01T09:38:27;25.35;;;5.88;;
51981;SDS011;37998;53.416;6.730;2023-02-01T09:40:54;21.42;;;5.18;;
51981;SDS011;37998;53.416;6.730;2023-02-01T09:46:15;29.48;;;6.82;;
51981;SDS011;37998;53.416;6.730;2023-02-01T09:48:49;28.27;;;5.72;;
51981;SDS011;37998;53.416;6.730;2023-02-01T09:51:19;25.75;;;5.35;;
51981;SDS011;37998;53.416;6.730;2023-02-01T09:54:15;29.30;;;5.35;;
51981;SDS011;37998;53.416;6.730;2023-02-01T09:56:46;25.65;;;5.43;;
51981;SDS011;37998;53.416;6.730;2023-02-01T10:02:03;23.48;;;4.60;;
51981;SDS011;37998;53.416;6.730;2023-02-01T10:04:35;21.45;;;5.10;;
51981;SDS011;37998;53.416;6.730;2023-02-01T10:15:19;23.17;;;5.18;;
51981;SDS011;37998;53.416;6.730;2023-02-01T10:18:08;29.60;;;6.68;;
51981;SDS011;37998;53.416;6.730;2023-02-01T10:21:04;23.20;;;5.57;;
51981;SDS011;37998;53.416;6.730;2023-02-01T10:26:22;20.67;;;5.10;;
51981;SDS011;37998;53.416;6.730;2023-02-01T10:28:53;25.38;;;5.15;;
51981;SDS011;37998;53.416;6.730;2023-02-01T10:31:27;26.50;;;4.50;;
51981;SDS011;37998;53.416;6.730;2023-02-01T10:33:56;30.58;;;5.88;;
51981;SDS011;37998;53.416;6.730;2023-02-01T10:39:15;40.72;;;6.43;;
51981;SDS011;37998;53.416;6.730;2023-02-01T10:41:41;24.50;;;5.93;;
51981;SDS011;37998;53.416;6.730;2023-02-01T10:44:12;29.10;;;5.65;;
51981;SDS011;37998;53.416;6.730;2023-02-01T10:46:50;28.90;;;6.85;;
51981;SDS011;37998;53.416;6.730;2023-02-01T10:58:02;8.50;;;1.45;;
51981;SDS011;37998;53.416;6.730;2023-02-01T11:00:36;7.57;;;2.15;;
51981;SDS011;37998;53.416;6.730;2023-02-01T11:03:21;7.93;;;1.50;;
51981;SDS011;37998;53.416;6.730;2023-02-01T11:09:18;9.88;;;2.35;;
51981;SDS011;37998;53.416;6.730;2023-02-01T11:14:16;17.98;;;3.67;;
51981;SDS011;37998;53.416;6.730;2023-02-01T11:16:47;13.18;;;2.40;;
51981;SDS011;37998;53.416;6.730;2023-02-01T11:19:15;19.38;;;2.63;;
51981;SDS011;37998;53.416;6.730;2023-02-01T11:21:42;18.77;;;2.88;;
51981;SDS011;37998;53.416;6.730;2023-02-01T11:24:19;12.88;;;2.50;;
51981;SDS011;37998;53.416;6.730;2023-02-01T11:26:57;12.23;;;2.97;;
51981;SDS011;37998;53.416;6.730;2023-02-01T11:29:25;13.55;;;2.25;;
51981;SDS011;37998;53.416;6.730;2023-02-01T11:31:58;17.20;;;2.25;;
51981;SDS011;37998;53.416;6.730;2023-02-01T11:34:26;9.43;;;2.05;;
51981;SDS011;37998;53.416;6.730;2023-02-01T11:37:04;10.50;;;2.85;;
51981;SDS011;37998;53.416;6.730;2023-02-01T11:39:44;6.97;;;2.10;;
51981;SDS011;37998;53.416;6.730;2023-02-01T11:42:25;7.47;;;1.80;;
51981;SDS011;37998;53.416;6.730;2023-02-01T11:45:07;8.57;;;2.17;;
51981;SDS011;37998;53.416;6.730;2023-02-01T11:47:41;6.88;;;2.10;;
51981;SDS011;37998;53.416;6.730;2023-02-01T11:50:12;9.73;;;2.60;;
51981;SDS011;37998;53.416;6.730;2023-02-01T11:52:45;11.13;;;2.50;;
51981;SDS011;37998;53.416;6.730;2023-02-01T12:11:56;12.70;;;2.60;;
51981;SDS011;37998;53.416;6.730;2023-02-01T12:14:59;8.30;;;2.20;;
51981;SDS011;37998;53.416;6.730;2023-02-01T12:18:06;11.90;;;2.50;;
51981;SDS011;37998;53.416;6.730;2023-02-01T12:20:58;13.30;;;2.30;;
51981;SDS011;37998;53.416;6.730;2023-02-01T12:40:28;27.05;;;6.32;;
51981;SDS011;37998;53.416;6.730;2023-02-01T12:45:55;30.75;;;6.55;;
51981;SDS011;37998;53.416;6.730;2023-02-01T12:50:56;45.95;;;6.70;;
51981;SDS011;37998;53.416;6.730;2023-02-01T12:53:31;40.50;;;7.07;;
51981;SDS011;37998;53.416;6.730;2023-02-01T12:56:54;40.78;;;7.68;;
51981;SDS011;37998;53.416;6.730;2023-02-01T13:01:53;41.47;;;7.70;;
51981;SDS011;37998;53.416;6.730;2023-02-01T13:07:01;34.25;;;7.45;;
51981;SDS011;37998;53.416;6.730;2023-02-01T13:12:15;42.25;;;7.90;;
51981;SDS011;37998;53.416;6.730;2023-02-01T13:19:53;31.08;;;6.20;;
51981;SDS011;37998;53.416;6.730;2023-02-01T13:22:28;32.75;;;7.72;;
51981;SDS011;37998;53.416;6.730;2023-02-01T13:27:45;34.80;;;7.18;;
51981;SDS011;37998;53.416;6.730;2023-02-01T13:30:17;27.70;;;7.03;;
51981;SDS011;37998;53.416;6.730;2023-02-01T13:35:48;32.80;;;8.20;;
51981;SDS011;37998;53.416;6.730;2023-02-01T13:41:50;33.33;;;6.55;;
51981;SDS011;37998;53.416;6.730;2023-02-01T13:44:10;34.00;;;7.18;;
51981;SDS011;37998;53.416;6.730;2023-02-01T13:46:39;35.00;;;6.50;;
51981;SDS011;37998;53.416;6.730;2023-02-01T13:49:13;40.55;;;8.15;;
51981;SDS011;37998;53.416;6.730;2023-02-01T13:51:51;30.80;;;6.32;;
51981;SDS011;37998;53.416;6.730;2023-02-01T13:54:33;37.92;;;7.22;;
51981;SDS011;37998;53.416;6.730;2023-02-01T13:57:03;32.00;;;7.07;;
51981;SDS011;37998;53.416;6.730;2023-02-01T14:05:03;35.30;;;6.85;;
51981;SDS011;37998;53.416;6.730;2023-02-01T14:07:32;35.35;;;7.45;;
51981;SDS011;37998;53.416;6.730;2023-02-01T14:09:58;37.67;;;6.55;;
51981;SDS011;37998;53.416;6.730;2023-02-01T14:13:03;27.48;;;7.28;;
51981;SDS011;37998;53.416;6.730;2023-02-01T14:15:30;31.83;;;7.45;;
51981;SDS011;37998;53.416;6.730;2023-02-01T14:17:56;28.63;;;6.60;;
51981;SDS011;37998;53.416;6.730;2023-02-01T14:23:38;31.80;;;7.93;;
51981;SDS011;37998;53.416;6.730;2023-02-01T14:26:07;28.42;;;6.30;;
51981;SDS011;37998;53.416;6.730;2023-02-01T14:28:36;37.95;;;7.35;;
51981;SDS011;37998;53.416;6.730;2023-02-01T14:33:54;40.75;;;7.00;;
51981;SDS011;37998;53.416;6.730;2023-02-01T14:36:23;31.42;;;7.15;;
51981;SDS011;37998;53.416;6.730;2023-02-01T14:38:50;31.52;;;7.70;;
51981;SDS011;37998;53.416;6.730;2023-02-01T14:41:30;28.88;;;6.15;;
51981;SDS011;37998;53.416;6.730;2023-02-01T14:49:32;27.10;;;6.22;;
51981;SDS011;37998;53.416;6.730;2023-02-01T14:52:02;33.70;;;6.53;;
51981;SDS011;37998;53.416;6.730;2023-02-01T14:54:34;28.63;;;6.47;;
51981;SDS011;37998;53.416;6.730;2023-02-01T14:57:01;30.70;;;7.07;;
51981;SDS011;37998;53.416;6.730;2023-02-01T14:59:28;35.13;;;6.75;;
51981;SDS011;37998;53.416;6.730;2023-02-01T15:01:58;42.47;;;8.30;;
51981;SDS011;37998;53.416;6.730;2023-02-01T15:04:26;38.13;;;6.53;;
51981;SDS011;37998;53.416;6.730;2023-02-01T15:12:25;30.15;;;6.47;;
51981;SDS011;37998;53.416;6.730;2023-02-01T15:15:12;26.13;;;6.90;;
51981;SDS011;37998;53.416;6.730;2023-02-01T15:17:41;29.83;;;7.13;;
51981;SDS011;37998;53.416;6.730;2023-02-01T15:22:40;28.98;;;6.40;;
51981;SDS011;37998;53.416;6.730;2023-02-01T15:25:20;28.02;;;6.20;;
51981;SDS011;37998;53.416;6.730;2023-02-01T15:27:47;28.58;;;6.10;;
51981;SDS011;37998;53.416;6.730;2023-02-01T15:30:20;37.35;;;7.15;;
51981;SDS011;37998;53.416;6.730;2023-02-01T15:32:47;28.85;;;6.72;;
51981;SDS011;37998;53.416;6.730;2023-02-01T15:43:31;25.03;;;5.73;;
51981;SDS011;37998;53.416;6.730;2023-02-01T15:46:01;26.88;;;6.22;;
51981;SDS011;37998;53.416;6.730;2023-02-01T15:49:04;24.88;;;6.13;;
51981;SDS011;37998;53.416;6.730;2023-02-01T15:51:24;29.98;;;6.28;;
51981;SDS011;37998;53.416;6.730;2023-02-01T15:53:57;32.30;;;7.95;;
51981;SDS011;37998;53.416;6.730;2023-02-01T15:56:27;33.97;;;6.97;;
51981;SDS011;37998;53.416;6.730;2023-02-01T15:58:59;29.60;;;6.97;;
51981;SDS011;37998;53.416;6.730;2023-02-01T16:01:27;33.35;;;6.68;;
51981;SDS011;37998;53.416;6.730;2023-02-01T16:06:45;32.83;;;6.07;;
51981;SDS011;37998;53.416;6.730;2023-02-01T16:09:19;28.10;;;6.30;;
51981;SDS011;37998;53.416;6.730;2023-02-01T16:14:23;27.25;;;5.60;;
51981;SDS011;37998;53.416;6.730;2023-02-01T16:16:50;34.25;;;6.25;;
51981;SDS011;37998;53.416;6.730;2023-02-01T16:19:16;26.95;;;6.00;;
51981;SDS011;37998;53.416;6.730;2023-02-01T16:21:42;24.50;;;5.63;;
51981;SDS011;37998;53.416;6.730;2023-02-01T16:24:08;27.85;;;5.32;;
51981;SDS011;37998;53.416;6.730;2023-02-01T16:26:34;27.58;;;6.03;;
51981;SDS011;37998;53.416;6.730;2023-02-01T16:29:00;28.30;;;6.30;;
51981;SDS011;37998;53.416;6.730;2023-02-01T16:31:31;29.45;;;6.45;;
51981;SDS011;37998;53.416;6.730;2023-02-01T16:34:00;33.80;;;6.50;;
51981;SDS011;37998;53.416;6.730;2023-02-01T16:36:26;31.60;;;6.05;;
51981;SDS011;37998;53.416;6.730;2023-02-01T16:38:53;39.17;;;6.68;;
51981;SDS011;37998;53.416;6.730;2023-02-01T16:41:20;32.03;;;6.15;;
51981;SDS011;37998;53.416;6.730;2023-02-01T16:43:51;30.90;;;7.05;;
51981;SDS011;37998;53.416;6.730;2023-02-01T16:46:22;24.73;;;5.80;;
51981;SDS011;37998;53.416;6.730;2023-02-01T16:49:00;32.10;;;7.03;;
51981;SDS011;37998;53.416;6.730;2023-02-01T16:51:30;30.50;;;6.15;;
51981;SDS011;37998;53.416;6.730;2023-02-01T16:53:58;31.80;;;6.25;;
51981;SDS011;37998;53.416;6.730;2023-02-01T16:56:28;25.35;;;6.20;;
51981;SDS011;37998;53.416;6.730;2023-02-01T16:58:55;38.47;;;7.00;;
51981;SDS011;37998;53.416;6.730;2023-02-01T17:01:21;36.22;;;7.03;;
51981;SDS011;37998;53.416;6.730;2023-02-01T17:03:47;30.45;;;5.85;;
51981;SDS011;37998;53.416;6.730;2023-02-01T17:06:22;32.05;;;6.40;;
51981;SDS011;37998;53.416;6.730;2023-02-01T17:08:50;22.40;;;5.18;;
51981;SDS011;37998;53.416;6.730;2023-02-01T17:11:17;27.35;;;6.35;;
51981;SDS011;37998;53.416;6.730;2023-02-01T17:13:43;21.88;;;5.15;;
51981;SDS011;37998;53.416;6.730;2023-02-01T17:19:10;24.25;;;5.80;;
51981;SDS011;37998;53.416;6.730;2023-02-01T17:21:47;29.80;;;6.13;;
51981;SDS011;37998;53.416;6.730;2023-02-01T17:24:16;24.02;;;6.20;;
51981;SDS011;37998;53.416;6.730;2023-02-01T17:26:45;28.70;;;5.82;;
51981;SDS011;37998;53.416;6.730;2023-02-01T17:29:11;27.85;;;6.28;;
51981;SDS011;37998;53.416;6.730;2023-02-01T17:31:39;37.58;;;6.80;;
51981;SDS011;37998;53.416;6.730;2023-02-01T17:34:08;24.77;;;5.80;;
51981;SDS011;37998;53.416;6.730;2023-02-01T17:36:35;26.00;;;5.03;;
51981;SDS011;37998;53.416;6.730;2023-02-01T17:39:01;23.65;;;5.55;;
51981;SDS011;37998;53.416;6.730;2023-02-01T17:41:27;23.30;;;5.57;;
51981;SDS011;37998;53.416;6.730;2023-02-01T17:43:52;28.48;;;6.88;;
51981;SDS011;37998;53.416;6.730;2023-02-01T17:46:18;29.73;;;6.25;;
51981;SDS011;37998;53.416;6.730;2023-02-01T17:48:45;24.05;;;5.63;;